sensor_id;sensor_type;location;lat;lon;timestamp;pressure;altitude;pressure_sealevel;temperature;humidity
65614;BME280;52283;49.292;10.572;2023-12-20T00:00:08;96343.44;;;4.89;100.00
65614;BME280;52283;49.292;10.572;2023-12-20T00:02:35;96352.50;;;4.89;100.00
65614;BME280;52283;49.292;10.572;2023-12-20T00:05:02;96351.91;;;4.85;100.00
65614;BME280;52283;49.292;10.572;2023-12-20T00:07:30;96351.84;;;4.95;100.00
65614;BME280;52283;49.292;10.572;2023-12-20T00:09:56;96343.00;;;4.81;100.00
65614;BME280;52283;49.292;10.572;2023-12-20T00:12:23;96344.31;;;4.95;100.00
65614;BME280;52283;49.292;10.572;2023-12-20T00:14:49;96334.66;;;4.90;100.00
65614;BME280;52283;49.292;10.572;2023-12-20T00:17:15;96333.03;;;4.75;100.00
65614;BME280;52283;49.292;10.572;2023-12-20T00:19:42;96339.78;;;4.83;100.00
65614;BME280;52283;49.292;10.572;2023-12-20T00:22:08;96334.84;;;4.78;100.00
65614;BME280;52283;49.292;10.572;2023-12-20T00:24:36;96326.44;;;4.72;100.00
65614;BME280;52283;49.292;10.572;2023-12-20T00:27:03;96325.59;;;4.90;100.00
65614;BME280;52283;49.292;10.572;2023-12-20T00:29:30;96311.94;;;4.77;100.00
65614;BME280;52283;49.292;10.572;2023-12-20T00:31:56;96314.00;;;4.68;100.00
65614;BME280;52283;49.292;10.572;2023-12-20T00:34:22;96311.81;;;4.72;100.00
65614;BME280;52283;49.292;10.572;2023-12-20T00:36:49;96312.28;;;4.70;100.00
65614;BME280;52283;49.292;10.572;2023-12-20T00:39:16;96302.28;;;4.73;100.00
65614;BME280;52283;49.292;10.572;2023-12-20T00:41:43;96305.03;;;4.73;100.00
65614;BME280;52283;49.292;10.572;2023-12-20T00:44:10;96304.00;;;4.70;100.00
65614;BME280;52283;49.292;10.572;2023-12-20T00:46:36;96303.34;;;4.75;100.00
65614;BME280;52283;49.292;10.572;2023-12-20T00:49:03;96302.25;;;4.82;100.00
65614;BME280;52283;49.292;10.572;2023-12-20T00:51:29;96303.03;;;4.82;100.00
65614;BME280;52283;49.292;10.572;2023-12-20T00:53:56;96305.78;;;4.82;100.00
65614;BME280;52283;49.292;10.572;2023-12-20T00:56:22;96312.09;;;4.83;100.00
65614;BME280;52283;49.292;10.572;2023-12-20T00:58:50;96300.38;;;4.88;100.00
65614;BME280;52283;49.292;10.572;2023-12-20T01:01:17;96290.22;;;4.85;100.00
65614;BME280;52283;49.292;10.572;2023-12-20T01:03:42;96302.38;;;4.87;100.00
65614;BME280;52283;49.292;10.572;2023-12-20T01:06:09;96292.09;;;4.79;100.00
65614;BME280;52283;49.292;10.572;2023-12-20T01:08:35;96284.22;;;4.86;100.00
65614;BME280;52283;49.292;10.572;2023-12-20T01:11:04;96293.31;;;4.87;100.00
65614;BME280;52283;49.292;10.572;2023-12-20T01:13:30;96290.81;;;4.89;100.00
65614;BME280;52283;49.292;10.572;2023-12-20T01:15:58;96288.41;;;4.82;100.00
65614;BME280;52283;49.292;10.572;2023-12-20T01:18:24;96289.75;;;4.86;100.00
65614;BME280;52283;49.292;10.572;2023-12-20T01:20:51;96284.88;;;4.81;100.00
65614;BME280;52283;49.292;10.572;2023-12-20T01:23:17;96276.56;;;4.81;100.00
65614;BME280;52283;49.292;10.572;2023-12-20T01:25:44;96281.97;;;4.76;100.00
65614;BME280;52283;49.292;10.572;2023-12-20T01:28:11;96262.88;;;4.78;100.00
65614;BME280;52283;49.292;10.572;2023-12-20T01:30:38;96290.88;;;4.80;100.00
65614;BME280;52283;49.292;10.572;2023-12-20T01:33:06;96285.97;;;4.75;100.00
65614;BME280;52283;49.292;10.572;2023-12-20T01:35:32;96288.03;;;4.65;100.00
65614;BME280;52283;49.292;10.572;2023-12-20T01:37:59;96285.38;;;4.71;100.00
65614;BME280;52283;49.292;10.572;2023-12-20T01:40:25;96283.56;;;4.68;100.00
65614;BME280;52283;49.292;10.572;2023-12-20T01:42:58;96293.31;;;4.78;100.00
65614;BME280;52283;49.292;10.572;2023-12-20T01:45:24;96290.16;;;4.70;100.00
65614;BME280;52283;49.292;10.572;2023-12-20T01:47:51;96280.97;;;4.64;100.00
65614;BME280;52283;49.292;10.572;2023-12-20T01:50:20;96297.03;;;4.75;100.00
65614;BME280;52283;49.292;10.572;2023-12-20T01:52:47;96285.72;;;4.64;100.00
65614;BME280;52283;49.292;10.572;2023-12-20T01:55:17;96289.75;;;4.53;100.00
65614;BME280;52283;49.292;10.572;2023-12-20T01:57:44;96283.16;;;4.51;100.00
65614;BME280;52283;49.292;10.572;2023-12-20T02:00:13;96284.97;;;4.54;100.00
65614;BME280;52283;49.292;10.572;2023-12-20T02:02:41;96286.72;;;4.42;100.00
65614;BME280;52283;49.292;10.572;2023-12-20T02:05:08;96287.50;;;4.43;100.00
65614;BME280;52283;49.292;10.572;2023-12-20T02:07:36;96277.19;;;4.43;100.00
65614;BME280;52283;49.292;10.572;2023-12-20T02:10:03;96278.44;;;4.42;100.00
65614;BME280;52283;49.292;10.572;2023-12-20T02:12:30;96284.56;;;4.37;100.00
65614;BME280;52283;49.292;10.572;2023-12-20T02:14:56;96289.22;;;4.31;100.00
65614;BME280;52283;49.292;10.572;2023-12-20T02:17:23;96282.63;;;4.28;100.00
65614;BME280;52283;49.292;10.572;2023-12-20T02:19:49;96286.97;;;4.20;100.00
65614;BME280;52283;49.292;10.572;2023-12-20T02:22:17;96285.13;;;4.08;100.00
65614;BME280;52283;49.292;10.572;2023-12-20T02:24:44;96271.81;;;3.97;100.00
65614;BME280;52283;49.292;10.572;2023-12-20T02:27:10;96278.69;;;4.02;100.00
65614;BME280;52283;49.292;10.572;2023-12-20T02:29:37;96280.69;;;3.92;100.00
65614;BME280;52283;49.292;10.572;2023-12-20T02:32:04;96301.44;;;3.97;100.00
65614;BME280;52283;49.292;10.572;2023-12-20T02:34:31;96294.84;;;3.94;100.00
65614;BME280;52283;49.292;10.572;2023-12-20T02:36:57;96294.53;;;4.02;100.00
65614;BME280;52283;49.292;10.572;2023-12-20T02:39:25;96288.22;;;3.92;100.00
65614;BME280;52283;49.292;10.572;2023-12-20T02:41:52;96279.81;;;3.86;100.00
65614;BME280;52283;49.292;10.572;2023-12-20T02:44:18;96280.13;;;3.79;100.00
65614;BME280;52283;49.292;10.572;2023-12-20T02:46:45;96287.16;;;3.89;100.00
65614;BME280;52283;49.292;10.572;2023-12-20T02:49:11;96282.09;;;3.88;100.00
65614;BME280;52283;49.292;10.572;2023-12-20T02:51:38;96287.16;;;3.89;100.00
65614;BME280;52283;49.292;10.572;2023-12-20T02:54:04;96274.25;;;3.95;100.00
65614;BME280;52283;49.292;10.572;2023-12-20T02:56:32;96272.75;;;3.85;100.00
65614;BME280;52283;49.292;10.572;2023-12-20T02:58:59;96276.56;;;3.88;100.00
65614;BME280;52283;49.292;10.572;2023-12-20T03:01:26;96282.25;;;3.93;100.00
65614;BME280;52283;49.292;10.572;2023-12-20T03:03:52;96282.69;;;4.01;100.00
65614;BME280;52283;49.292;10.572;2023-12-20T03:06:19;96275.81;;;3.96;100.00
65614;BME280;52283;49.292;10.572;2023-12-20T03:08:46;96272.91;;;3.82;100.00
65614;BME280;52283;49.292;10.572;2023-12-20T03:11:12;96278.91;;;3.80;100.00
65614;BME280;52283;49.292;10.572;2023-12-20T03:13:40;96273.34;;;3.89;100.00
65614;BME280;52283;49.292;10.572;2023-12-20T03:16:08;96274.31;;;3.77;100.00
65614;BME280;52283;49.292;10.572;2023-12-20T03:18:35;96269.38;;;3.81;100.00
65614;BME280;52283;49.292;10.572;2023-12-20T03:21:02;96269.06;;;3.79;100.00
65614;BME280;52283;49.292;10.572;2023-12-20T03:23:29;96278.72;;;3.75;100.00
65614;BME280;52283;49.292;10.572;2023-12-20T03:25:56;96277.34;;;3.88;100.00
65614;BME280;52283;49.292;10.572;2023-12-20T03:28:22;96279.50;;;3.84;100.00
65614;BME280;52283;49.292;10.572;2023-12-20T03:30:50;96268.78;;;3.77;100.00
65614;BME280;52283;49.292;10.572;2023-12-20T03:33:17;96279.06;;;3.77;100.00
65614;BME280;52283;49.292;10.572;2023-12-20T03:35:43;96275.38;;;3.71;100.00
65614;BME280;52283;49.292;10.572;2023-12-20T03:38:10;96285.94;;;3.72;100.00
65614;BME280;52283;49.292;10.572;2023-12-20T03:40:36;96276.00;;;3.65;100.00
65614;BME280;52283;49.292;10.572;2023-12-20T03:43:03;96288.88;;;3.68;100.00
65614;BME280;52283;49.292;10.572;2023-12-20T03:45:29;96279.53;;;3.66;100.00
65614;BME280;52283;49.292;10.572;2023-12-20T03:47:57;96282.28;;;3.75;100.00
65614;BME280;52283;49.292;10.572;2023-12-20T03:50:24;96276.28;;;3.67;100.00
65614;BME280;52283;49.292;10.572;2023-12-20T03:52:50;96287.19;;;3.62;100.00
65614;BME280;52283;49.292;10.572;2023-12-20T03:55:17;96277.84;;;3.59;100.00
65614;BME280;52283;49.292;10.572;2023-12-20T03:57:44;96289.19;;;3.61;100.00
65614;BME280;52283;49.292;10.572;2023-12-20T04:00:11;96280.91;;;3.61;100.00
65614;BME280;52283;49.292;10.572;2023-12-20T04:02:38;96286.91;;;3.60;100.00
65614;BME280;52283;49.292;10.572;2023-12-20T04:05:07;96287.66;;;3.70;100.00
65614;BME280;52283;49.292;10.572;2023-12-20T04:07:34;96275.69;;;3.54;100.00
65614;BME280;52283;49.292;10.572;2023-12-20T04:10:02;96283.53;;;3.56;100.00
65614;BME280;52283;49.292;10.572;2023-12-20T04:12:29;96285.50;;;3.64;100.00
65614;BME280;52283;49.292;10.572;2023-12-20T04:14:56;96283.34;;;3.50;100.00
65614;BME280;52283;49.292;10.572;2023-12-20T04:17:22;96289.50;;;3.63;100.00
65614;BME280;52283;49.292;10.572;2023-12-20T04:19:49;96281.53;;;3.56;100.00
65614;BME280;52283;49.292;10.572;2023-12-20T04:22:18;96282.44;;;3.53;100.00
65614;BME280;52283;49.292;10.572;2023-12-20T04:24:44;96280.78;;;3.56;100.00
65614;BME280;52283;49.292;10.572;2023-12-20T04:27:11;96276.28;;;3.49;100.00
65614;BME280;52283;49.292;10.572;2023-12-20T04:29:37;96280.44;;;3.63;100.00
65614;BME280;52283;49.292;10.572;2023-12-20T04:32:05;96285.66;;;3.61;100.00
65614;BME280;52283;49.292;10.572;2023-12-20T04:34:31;96280.91;;;3.61;100.00
65614;BME280;52283;49.292;10.572;2023-12-20T04:36:58;96281.53;;;3.56;100.00
65614;BME280;52283;49.292;10.572;2023-12-20T04:39:26;96282.75;;;3.55;100.00
65614;BME280;52283;49.292;10.572;2023-12-20T04:41:52;96294.88;;;3.58;100.00
65614;BME280;52283;49.292;10.572;2023-12-20T04:44:18;96291.81;;;3.47;100.00
65614;BME280;52283;49.292;10.572;2023-12-20T04:46:45;96306.81;;;3.27;100.00
65614;BME280;52283;49.292;10.572;2023-12-20T04:49:11;96306.06;;;3.45;100.00
65614;BME280;52283;49.292;10.572;2023-12-20T04:51:38;96317.44;;;3.38;100.00
65614;BME280;52283;49.292;10.572;2023-12-20T04:54:05;96304.69;;;3.41;100.00
65614;BME280;52283;49.292;10.572;2023-12-20T04:56:33;96324.03;;;3.41;100.00
65614;BME280;52283;49.292;10.572;2023-12-20T04:58:59;96319.88;;;3.27;100.00
65614;BME280;52283;49.292;10.572;2023-12-20T05:01:26;96324.94;;;3.28;100.00
65614;BME280;52283;49.292;10.572;2023-12-20T05:03:52;96334.31;;;3.40;100.00
65614;BME280;52283;49.292;10.572;2023-12-20T05:06:18;96331.53;;;3.22;100.00
65614;BME280;52283;49.292;10.572;2023-12-20T05:08:45;96323.41;;;3.27;100.00
65614;BME280;52283;49.292;10.572;2023-12-20T05:11:11;96323.69;;;3.20;100.00
65614;BME280;52283;49.292;10.572;2023-12-20T05:13:40;96335.66;;;3.17;100.00
65614;BME280;52283;49.292;10.572;2023-12-20T05:16:07;96319.56;;;3.16;100.00
65614;BME280;52283;49.292;10.572;2023-12-20T05:18:35;96346.41;;;3.24;100.00
65614;BME280;52283;49.292;10.572;2023-12-20T05:21:02;96339.50;;;3.20;100.00
65614;BME280;52283;49.292;10.572;2023-12-20T05:23:28;96338.28;;;3.21;100.00
65614;BME280;52283;49.292;10.572;2023-12-20T05:25:55;96325.09;;;3.16;100.00
65614;BME280;52283;49.292;10.572;2023-12-20T05:28:21;96337.81;;;3.22;100.00
65614;BME280;52283;49.292;10.572;2023-12-20T05:30:49;96339.66;;;3.16;100.00
65614;BME280;52283;49.292;10.572;2023-12-20T05:33:16;96350.25;;;3.18;100.00
65614;BME280;52283;49.292;10.572;2023-12-20T05:35:43;96345.03;;;3.29;100.00
65614;BME280;52283;49.292;10.572;2023-12-20T05:38:09;96344.44;;;3.34;100.00
65614;BME280;52283;49.292;10.572;2023-12-20T05:40:36;96349.03;;;3.28;100.00
65614;BME280;52283;49.292;10.572;2023-12-20T05:43:02;96350.41;;;3.32;100.00
65614;BME280;52283;49.292;10.572;2023-12-20T05:45:29;96344.13;;;3.41;100.00
65614;BME280;52283;49.292;10.572;2023-12-20T05:47:57;96347.78;;;3.29;100.00
65614;BME280;52283;49.292;10.572;2023-12-20T05:50:24;96367.91;;;3.29;100.00
65614;BME280;52283;49.292;10.572;2023-12-20T05:52:50;96368.34;;;3.28;100.00
65614;BME280;52283;49.292;10.572;2023-12-20T05:55:17;96365.00;;;3.42;100.00
65614;BME280;52283;49.292;10.572;2023-12-20T05:57:43;96367.94;;;3.39;100.00
65614;BME280;52283;49.292;10.572;2023-12-20T06:00:11;96367.16;;;3.47;100.00
65614;BME280;52283;49.292;10.572;2023-12-20T06:02:37;96366.53;;;3.34;100.00
65614;BME280;52283;49.292;10.572;2023-12-20T06:05:07;96386.50;;;3.47;100.00
65614;BME280;52283;49.292;10.572;2023-12-20T06:07:33;96365.47;;;3.41;100.00
65614;BME280;52283;49.292;10.572;2023-12-20T06:10:00;96378.81;;;3.51;100.00
65614;BME280;52283;49.292;10.572;2023-12-20T06:12:26;96370.84;;;3.53;100.00
65614;BME280;52283;49.292;10.572;2023-12-20T06:14:54;96384.19;;;3.46;100.00
65614;BME280;52283;49.292;10.572;2023-12-20T06:17:20;96378.34;;;3.34;100.00
65614;BME280;52283;49.292;10.572;2023-12-20T06:19:47;96384.19;;;3.46;100.00
65614;BME280;52283;49.292;10.572;2023-12-20T06:22:15;96384.03;;;3.49;100.00
65614;BME280;52283;49.292;10.572;2023-12-20T06:24:41;96377.13;;;3.45;100.00
65614;BME280;52283;49.292;10.572;2023-12-20T06:27:08;96377.91;;;3.45;100.00
65614;BME280;52283;49.292;10.572;2023-12-20T06:29:34;96393.28;;;3.55;100.00
65614;BME280;52283;49.292;10.572;2023-12-20T06:32:01;96387.28;;;3.57;100.00
65614;BME280;52283;49.292;10.572;2023-12-20T06:34:27;96396.94;;;3.52;100.00
65614;BME280;52283;49.292;10.572;2023-12-20T06:36:53;96396.63;;;3.50;100.00
65614;BME280;52283;49.292;10.572;2023-12-20T06:39:21;96384.22;;;3.55;100.00
65614;BME280;52283;49.292;10.572;2023-12-20T06:41:48;96389.09;;;3.51;100.00
65614;BME280;52283;49.292;10.572;2023-12-20T06:44:14;96388.53;;;3.56;100.00
65614;BME280;52283;49.292;10.572;2023-12-20T06:46:41;96394.19;;;3.61;100.00
65614;BME280;52283;49.292;10.572;2023-12-20T06:49:07;96405.09;;;3.56;100.00
65614;BME280;52283;49.292;10.572;2023-12-20T06:51:34;96401.25;;;3.62;100.00
65614;BME280;52283;49.292;10.572;2023-12-20T06:54:00;96410.47;;;3.59;100.00
65614;BME280;52283;49.292;10.572;2023-12-20T06:56:29;96406.47;;;3.70;100.00
65614;BME280;52283;49.292;10.572;2023-12-20T06:58:55;96407.09;;;3.92;100.00
65614;BME280;52283;49.292;10.572;2023-12-20T07:01:22;96412.50;;;3.77;100.00
65614;BME280;52283;49.292;10.572;2023-12-20T07:03:48;96418.50;;;3.76;100.00
65614;BME280;52283;49.292;10.572;2023-12-20T07:06:15;96428.44;;;3.73;100.00
65614;BME280;52283;49.292;10.572;2023-12-20T07:08:42;96429.81;;;3.68;100.00
65614;BME280;52283;49.292;10.572;2023-12-20T07:11:09;96446.13;;;3.76;100.00
65614;BME280;52283;49.292;10.572;2023-12-20T07:13:36;96442.59;;;3.75;100.00
65614;BME280;52283;49.292;10.572;2023-12-20T07:16:03;96443.38;;;3.85;100.00
65614;BME280;52283;49.292;10.572;2023-12-20T07:18:30;96460.41;;;3.92;100.00
65614;BME280;52283;49.292;10.572;2023-12-20T07:20:56;96460.25;;;3.78;100.00
65614;BME280;52283;49.292;10.572;2023-12-20T07:23:23;96469.00;;;3.85;100.00
65614;BME280;52283;49.292;10.572;2023-12-20T07:25:51;96467.31;;;3.79;100.00
65614;BME280;52283;49.292;10.572;2023-12-20T07:28:17;96473.00;;;3.84;100.00
65614;BME280;52283;49.292;10.572;2023-12-20T07:30:45;96479.59;;;3.78;100.00
65614;BME280;52283;49.292;10.572;2023-12-20T07:33:11;96478.69;;;3.90;100.00
65614;BME280;52283;49.292;10.572;2023-12-20T07:35:38;96486.50;;;3.91;100.00
65614;BME280;52283;49.292;10.572;2023-12-20T07:38:05;96484.38;;;3.95;100.00
65614;BME280;52283;49.292;10.572;2023-12-20T07:40:31;96480.06;;;3.85;100.00
65614;BME280;52283;49.292;10.572;2023-12-20T07:42:58;96482.06;;;3.85;100.00
65614;BME280;52283;49.292;10.572;2023-12-20T07:45:25;96485.28;;;3.92;100.00
65614;BME280;52283;49.292;10.572;2023-12-20T07:47:53;96485.16;;;3.96;100.00
65614;BME280;52283;49.292;10.572;2023-12-20T07:50:19;96495.91;;;4.03;100.00
65614;BME280;52283;49.292;10.572;2023-12-20T07:52:46;96495.75;;;3.97;100.00
65614;BME280;52283;49.292;10.572;2023-12-20T07:55:12;96491.16;;;4.04;100.00
65614;BME280;52283;49.292;10.572;2023-12-20T07:57:39;96497.41;;;3.95;100.00
65614;BME280;52283;49.292;10.572;2023-12-20T08:00:06;96496.50;;;3.89;100.00
65614;BME280;52283;49.292;10.572;2023-12-20T08:02:33;96498.94;;;3.78;100.00
65614;BME280;52283;49.292;10.572;2023-12-20T08:05:01;96492.00;;;3.73;100.00
65614;BME280;52283;49.292;10.572;2023-12-20T08:07:27;96504.47;;;3.87;100.00
65614;BME280;52283;49.292;10.572;2023-12-20T08:09:54;96504.47;;;3.87;100.00
65614;BME280;52283;49.292;10.572;2023-12-20T08:12:22;96504.78;;;3.89;100.00
65614;BME280;52283;49.292;10.572;2023-12-20T08:14:48;96505.59;;;4.08;100.00
65614;BME280;52283;49.292;10.572;2023-12-20T08:17:15;96509.75;;;4.03;100.00
65614;BME280;52283;49.292;10.572;2023-12-20T08:19:44;96510.50;;;4.04;100.00
65614;BME280;52283;49.292;10.572;2023-12-20T08:22:12;96508.50;;;4.04;100.00
65614;BME280;52283;49.292;10.572;2023-12-20T08:24:38;96501.25;;;3.88;100.00
65614;BME280;52283;49.292;10.572;2023-12-20T08:27:05;96507.25;;;3.87;100.00
65614;BME280;52283;49.292;10.572;2023-12-20T08:29:32;96510.47;;;3.85;100.00
65614;BME280;52283;49.292;10.572;2023-12-20T08:31:59;96513.41;;;3.91;100.00
65614;BME280;52283;49.292;10.572;2023-12-20T08:34:25;96512.16;;;3.83;100.00
65614;BME280;52283;49.292;10.572;2023-12-20T08:36:52;96515.53;;;3.78;100.00
65614;BME280;52283;49.292;10.572;2023-12-20T08:39:20;96513.97;;;3.67;100.00
65614;BME280;52283;49.292;10.572;2023-12-20T08:41:46;96502.91;;;3.67;100.00
65614;BME280;52283;49.292;10.572;2023-12-20T08:44:13;96513.03;;;3.71;100.00
65614;BME280;52283;49.292;10.572;2023-12-20T08:46:39;96502.44;;;3.69;100.00
65614;BME280;52283;49.292;10.572;2023-12-20T08:49:06;96503.41;;;3.75;100.00
65614;BME280;52283;49.292;10.572;2023-12-20T08:51:34;96502.94;;;3.77;100.00
65614;BME280;52283;49.292;10.572;2023-12-20T08:54:00;96506.75;;;3.70;100.00
65614;BME280;52283;49.292;10.572;2023-12-20T08:56:28;96507.69;;;3.76;100.00
65614;BME280;52283;49.292;10.572;2023-12-20T08:58:54;96515.03;;;3.70;100.00
65614;BME280;52283;49.292;10.572;2023-12-20T09:01:21;96519.38;;;3.80;100.00
65614;BME280;52283;49.292;10.572;2023-12-20T09:03:47;96525.00;;;3.67;100.00
65614;BME280;52283;49.292;10.572;2023-12-20T09:06:14;96527.78;;;3.67;100.00
65614;BME280;52283;49.292;10.572;2023-12-20T09:08:40;96519.03;;;3.69;100.00
65614;BME280;52283;49.292;10.572;2023-12-20T09:11:07;96521.94;;;3.75;100.00
65614;BME280;52283;49.292;10.572;2023-12-20T09:13:35;96521.78;;;3.60;100.00
65614;BME280;52283;49.292;10.572;2023-12-20T09:16:02;96538.09;;;3.76;100.00
65614;BME280;52283;49.292;10.572;2023-12-20T09:18:29;96527.47;;;3.75;100.00
65614;BME280;52283;49.292;10.572;2023-12-20T09:20:55;96537.97;;;3.80;100.00
65614;BME280;52283;49.292;10.572;2023-12-20T09:23:22;96536.28;;;3.82;100.00
65614;BME280;52283;49.292;10.572;2023-12-20T09:25:48;96534.28;;;3.83;100.00
65614;BME280;52283;49.292;10.572;2023-12-20T09:28:15;96529.03;;;3.76;100.00
65614;BME280;52283;49.292;10.572;2023-12-20T09:30:43;96516.00;;;3.76;100.00
65614;BME280;52283;49.292;10.572;2023-12-20T09:33:11;96517.84;;;3.79;100.00
65614;BME280;52283;49.292;10.572;2023-12-20T09:35:37;96510.78;;;3.87;100.00
65614;BME280;52283;49.292;10.572;2023-12-20T09:38:04;96514.47;;;3.93;100.00
65614;BME280;52283;49.292;10.572;2023-12-20T09:40:32;96519.53;;;3.86;100.00
65614;BME280;52283;49.292;10.572;2023-12-20T09:43:03;96526.63;;;3.96;100.00
65614;BME280;52283;49.292;10.572;2023-12-20T09:45:30;96529.72;;;3.98;100.00
65614;BME280;52283;49.292;10.572;2023-12-20T09:47:58;96535.38;;;3.94;100.00
65614;BME280;52283;49.292;10.572;2023-12-20T09:50:25;96525.56;;;4.12;100.00
65614;BME280;52283;49.292;10.572;2023-12-20T09:52:53;96525.56;;;4.12;100.00
65614;BME280;52283;49.292;10.572;2023-12-20T09:55:21;96528.47;;;4.08;100.00
65614;BME280;52283;49.292;10.572;2023-12-20T09:57:49;96533.09;;;4.11;100.00
65614;BME280;52283;49.292;10.572;2023-12-20T10:00:16;96538.66;;;4.20;100.00
65614;BME280;52283;49.292;10.572;2023-12-20T10:02:47;96538.81;;;4.26;100.00
65614;BME280;52283;49.292;10.572;2023-12-20T10:05:17;96529.91;;;4.22;100.00
65614;BME280;52283;49.292;10.572;2023-12-20T10:07:45;96530.50;;;4.35;100.00
65614;BME280;52283;49.292;10.572;2023-12-20T10:10:13;96538.53;;;4.42;100.00
65614;BME280;52283;49.292;10.572;2023-12-20T10:12:39;96533.28;;;4.53;100.00
65614;BME280;52283;49.292;10.572;2023-12-20T10:15:06;96532.38;;;4.47;100.00
65614;BME280;52283;49.292;10.572;2023-12-20T10:17:33;96543.59;;;4.44;100.00
65614;BME280;52283;49.292;10.572;2023-12-20T10:19:59;96553.28;;;4.39;100.00
65614;BME280;52283;49.292;10.572;2023-12-20T10:22:28;96552.50;;;4.39;100.00
65614;BME280;52283;49.292;10.572;2023-12-20T10:24:56;96543.44;;;4.38;100.00
65614;BME280;52283;49.292;10.572;2023-12-20T10:27:22;96532.81;;;4.18;100.00
65614;BME280;52283;49.292;10.572;2023-12-20T10:29:49;96542.47;;;4.14;100.00
65614;BME280;52283;49.292;10.572;2023-12-20T10:32:23;96541.44;;;4.20;100.00
65614;BME280;52283;49.292;10.572;2023-12-20T10:34:50;96534.63;;;4.12;100.00
65614;BME280;52283;49.292;10.572;2023-12-20T10:37:16;96535.25;;;4.07;100.00
65614;BME280;52283;49.292;10.572;2023-12-20T10:39:47;96536.47;;;4.06;100.00
65614;BME280;52283;49.292;10.572;2023-12-20T10:42:15;96544.63;;;4.10;100.00
65614;BME280;52283;49.292;10.572;2023-12-20T10:44:42;96531.25;;;4.08;100.00
65614;BME280;52283;49.292;10.572;2023-12-20T10:47:11;96514.97;;;4.10;100.00
65614;BME280;52283;49.292;10.572;2023-12-20T10:49:40;96523.56;;;4.12;100.00
65614;BME280;52283;49.292;10.572;2023-12-20T10:52:07;96504.53;;;4.23;100.00
65614;BME280;52283;49.292;10.572;2023-12-20T10:54:35;96514.22;;;4.28;100.00
65614;BME280;52283;49.292;10.572;2023-12-20T10:57:04;96513.13;;;4.16;100.00
65614;BME280;52283;49.292;10.572;2023-12-20T10:59:33;96502.38;;;4.27;100.00
65614;BME280;52283;49.292;10.572;2023-12-20T11:02:02;96503.78;;;4.41;100.00
65614;BME280;52283;49.292;10.572;2023-12-20T11:04:37;96515.00;;;4.28;100.00
65614;BME280;52283;49.292;10.572;2023-12-20T11:07:12;96507.28;;;4.14;100.00
65614;BME280;52283;49.292;10.572;2023-12-20T11:09:47;96491.78;;;4.17;100.00
65614;BME280;52283;49.292;10.572;2023-12-20T11:12:21;96506.69;;;4.19;100.00
65614;BME280;52283;49.292;10.572;2023-12-20T11:14:53;96507.47;;;4.29;100.00
65614;BME280;52283;49.292;10.572;2023-12-20T11:17:21;96508.06;;;4.33;100.00
65614;BME280;52283;49.292;10.572;2023-12-20T11:20:07;96513.28;;;4.31;100.00
65614;BME280;52283;49.292;10.572;2023-12-20T11:22:35;96498.72;;;4.40;100.00
65614;BME280;52283;49.292;10.572;2023-12-20T11:25:05;96491.47;;;4.24;100.00
65614;BME280;52283;49.292;10.572;2023-12-20T11:27:35;96486.25;;;4.35;100.00
65614;BME280;52283;49.292;10.572;2023-12-20T11:30:03;96489.00;;;4.26;100.00
65614;BME280;52283;49.292;10.572;2023-12-20T11:32:33;96487.47;;;4.34;100.00
65614;BME280;52283;49.292;10.572;2023-12-20T11:35:01;96493.94;;;4.31;100.00
65614;BME280;52283;49.292;10.572;2023-12-20T11:37:42;96478.56;;;4.39;100.00
65614;BME280;52283;49.292;10.572;2023-12-20T11:40:12;96478.09;;;4.22;100.00
65614;BME280;52283;49.292;10.572;2023-12-20T11:42:42;96480.41;;;4.24;100.00
65614;BME280;52283;49.292;10.572;2023-12-20T11:45:09;96482.25;;;4.27;100.00
65614;BME280;52283;49.292;10.572;2023-12-20T11:47:36;96474.84;;;4.15;100.00
65614;BME280;52283;49.292;10.572;2023-12-20T11:50:03;96481.50;;;4.17;100.00
65614;BME280;52283;49.292;10.572;2023-12-20T11:52:30;96484.72;;;4.25;100.00
65614;BME280;52283;49.292;10.572;2023-12-20T11:54:57;96469.34;;;4.24;100.00
65614;BME280;52283;49.292;10.572;2023-12-20T11:57:24;96471.81;;;4.22;100.00
65614;BME280;52283;49.292;10.572;2023-12-20T11:59:52;96480.09;;;4.31;100.00
65614;BME280;52283;49.292;10.572;2023-12-20T12:02:18;96479.31;;;4.12;100.00
65614;BME280;52283;49.292;10.572;2023-12-20T12:04:45;96483.63;;;4.13;100.00
65614;BME280;52283;49.292;10.572;2023-12-20T12:07:14;96481.81;;;4.19;100.00
65614;BME280;52283;49.292;10.572;2023-12-20T12:09:40;96469.66;;;4.26;100.00
65614;BME280;52283;49.292;10.572;2023-12-20T12:12:08;96475.63;;;4.34;100.00
65614;BME280;52283;49.292;10.572;2023-12-20T12:14:34;96473.50;;;4.19;100.00
65614;BME280;52283;49.292;10.572;2023-12-20T12:17:03;96482.41;;;4.23;100.00
65614;BME280;52283;49.292;10.572;2023-12-20T12:19:30;96475.34;;;4.32;100.00
65614;BME280;52283;49.292;10.572;2023-12-20T12:22:07;96473.19;;;4.26;100.00
65614;BME280;52283;49.292;10.572;2023-12-20T12:24:36;96485.19;;;4.42;100.00
65614;BME280;52283;49.292;10.572;2023-12-20T12:27:05;96488.41;;;4.31;100.00
65614;BME280;52283;49.292;10.572;2023-12-20T12:29:32;96478.41;;;4.15;100.00
65614;BME280;52283;49.292;10.572;2023-12-20T12:31:58;96480.09;;;4.13;100.00
65614;BME280;52283;49.292;10.572;2023-12-20T12:34:28;96485.78;;;4.09;100.00
65614;BME280;52283;49.292;10.572;2023-12-20T12:36:55;96481.66;;;4.23;100.00
65614;BME280;52283;49.292;10.572;2023-12-20T12:39:23;96473.97;;;4.18;100.00
65614;BME280;52283;49.292;10.572;2023-12-20T12:41:50;96480.25;;;4.09;100.00
65614;BME280;52283;49.292;10.572;2023-12-20T12:44:16;96484.88;;;4.31;100.00
65614;BME280;52283;49.292;10.572;2023-12-20T12:46:43;96475.94;;;4.08;100.00
65614;BME280;52283;49.292;10.572;2023-12-20T12:49:10;96483.94;;;4.24;100.00